• Join FlightAware (Why Join?)
  • Login
  • US Flag 
08:49PM EST


 

Airport Tracker/Info


-or-


 

Live Flight TrackerFlight Track Log ✈ N208JQ ✈ 19-Apr-2012 ✈ KDTW - KIND

Flight Track Log - Related Links

Times and Time Zones

All times are in EDT time to prevent confusion due to time zone crossing. See the N208JQ flight status page for this flight to view local times or setup timezone preferences in your user account.

Time Position Orientation Groundspeed Altitude Reporting Facility
EDT Latitude Longitude Course Direction KTS MPH feet Rate Location/Type
09:42PM 42.2292 -83.3369 355° North 140 161 1,200  Level Cleveland Center
09:43PM 42.3019 -83.3458 348° North 254 292 3,000 2,160 Climbing Cleveland Center
09:44PM 42.3578 -83.3622 276° West 269 310 5,900 3,360 Climbing Cleveland Center
09:45PM 42.3625 -83.4242 239° Southwest 246 283 8,200 2,700 Climbing Cleveland Center
09:46PM 42.3272 -83.5042 196° South 272 313 10,600 2,280 Climbing Cleveland Center
09:47PM 42.2431 -83.5367 201° Southwest 299 344 12,800 2,220 Climbing Cleveland Center
09:48PM 42.1628 -83.5778 198° South 325 374 15,100 2,400 Climbing Cleveland Center
09:49PM 42.0656 -83.6208 198° South 343 395 17,600 1,920 Climbing Cleveland Center
09:50PM 41.9686 -83.6636 199° South 354 407 19,000 900 Climbing Cleveland Center
09:51PM 41.8736 -83.7067 199° South 360 414 19,400 1,080 Climbing Cleveland Center
09:52PM 41.7744 -83.7519 197° South 371 427 21,200 1,260 Climbing Cleveland Center
09:53PM 41.6731 -83.7942 198° South 371 427 22,000 360 Climbing Cleveland Center
09:54PM 41.5697 -83.8389 199° South 383 441 22,000  Level Cleveland Center
09:55PM 41.4683 -83.8864 198° South 393 452 22,000  Level Cleveland Center
09:56PM 41.3647 -83.9311 198° South 393 452 22,000  Level Cleveland Center
09:57PM 41.2633 -83.9756 202° Southwest 393 452 22,000  Level Cleveland Center
09:58PM 41.1722 -84.0233 221° Southwest 393 452 22,000  Level Cleveland Center
09:58PM 41.1147 -84.0886 230° Southwest 383 441 22,000  Level Indianapolis Center
09:59PM 41.0494 -84.1925 230° Southwest 378 435 22,000  Level Indianapolis Center
10:00PM 40.9800 -84.3019 228° Southwest 383 441 22,000  Level Indianapolis Center
10:01PM 40.9108 -84.4028 229° Southwest 378 435 22,000  Level Indianapolis Center
10:02PM 40.8411 -84.5089 228° Southwest 378 435 22,000  Level Indianapolis Center
10:03PM 40.7736 -84.6094 228° Southwest 378 435 22,000  Level Indianapolis Center
10:04PM 40.7039 -84.7122 229° Southwest 378 435 22,000  Level Indianapolis Center
10:05PM 40.6361 -84.8150 228° Southwest 385 443 22,000  Level Indianapolis Center
10:06PM 40.5683 -84.9150 228° Southwest 385 443 22,000  Level Indianapolis Center
10:07PM 40.4964 -85.0200 228° Southwest 385 443 22,000 -120 Level Indianapolis Center
10:08PM 40.4283 -85.1194 227° Southwest 390 449 21,800 -1,140 Descending Indianapolis Center
10:09PM 40.3561 -85.2214 227° Southwest 380 437 19,800 -1,980 Descending Indianapolis Center
10:10PM 40.2881 -85.3178 231° Southwest 375 432 17,900 -1,740 Descending Indianapolis Center
10:11PM 40.2347 -85.4033 240° Southwest 368 423 16,400 -1,680 Descending Indianapolis Center
10:12PM 40.1869 -85.5108 240° Southwest 343 395 14,600 -1,740 Descending Indianapolis Center
10:13PM 40.1436 -85.6100 238° Southwest 330 380 12,900 -1,860 Descending Indianapolis Center
10:14PM 40.1000 -85.7000 246° West 313 360 11,200 -1,800 Descending Indianapolis TRACON
10:15PM 40.0667 -85.8000 242° Southwest 285 328 9,700 -1,440 Descending Indianapolis TRACON
10:16PM 40.0333 -85.8833 226° Southwest 276 318 8,400 -1,260 Descending Indianapolis TRACON
10:17PM 39.9833 -85.9500 226° Southwest 267 307 7,100 -720 Descending Indianapolis TRACON
10:18PM 39.9333 -86.0167 218° Southwest 228 262 7,000 -660 Descending Indianapolis TRACON
10:19PM 39.8833 -86.0667 226° Southwest 220 253 5,800 -1,440 Descending Indianapolis TRACON
10:20PM 39.8353 -86.1308 229° Southwest 225 259 4,100 -1,500 Descending Indianapolis Center
10:21PM 39.8000 -86.1833 218° Southwest 215 247 2,900 -1,200 Descending Indianapolis TRACON
10:22PM 39.7667 -86.2167 218° Southwest 176 203 2,000 -840 Descending Indianapolis TRACON
10:23PM 39.7333 -86.2500 218° Southwest 130 150 1,400 -720 Descending Indianapolis TRACON